Time;durP1;ratioP1;P1;durP2;ratioP2;P2;SDS_P1;SDS_P2;PMS_P1;PMS_P2;Temp;Humidity;BMP_temperature;BMP_pressure;BME280_temperature;BME280_humidity;BME280_pressure;Samples;Min_cycle;Max_cycle;Signal;HPM_P1;HPM_P2
2021/03/05 00:02:16;;;;;;;3.60;2.57;;;4.20;99.90;;;;;;5106189;28;20179;-78
2021/03/05 00:04:41;;;;;;;3.93;1.97;;;4.20;99.90;;;;;;5086894;28;20201;-78
2021/03/05 00:07:07;;;;;;;5.30;2.50;;;4.30;99.90;;;;;;5105283;28;20712;-78
2021/03/05 00:09:32;;;;;;;2.73;2.07;;;4.20;99.90;;;;;;5106118;28;20207;-79
2021/03/05 00:11:58;;;;;;;3.00;2.60;;;4.30;99.90;;;;;;5105721;28;20195;-78
2021/03/05 00:14:24;;;;;;;2.40;2.10;;;4.30;99.90;;;;;;5105044;28;20192;-79
2021/03/05 00:16:49;;;;;;;2.77;2.13;;;4.30;99.90;;;;;;5104617;28;20172;-79
2021/03/05 00:19:15;;;;;;;4.33;2.20;;;4.30;99.90;;;;;;5105347;28;20202;-79
2021/03/05 00:21:41;;;;;;;2.33;2.10;;;4.30;99.90;;;;;;5105649;28;20172;-79
2021/03/05 00:24:07;;;;;;;2.30;2.10;;;4.30;99.90;;;;;;5086665;28;20203;-79
2021/03/05 00:26:33;;;;;;;2.37;2.10;;;4.30;99.90;;;;;;5086416;28;20187;-79
2021/03/05 00:28:58;;;;;;;2.93;2.20;;;4.20;99.90;;;;;;5105725;28;20255;-79
2021/03/05 00:31:24;;;;;;;5.77;1.90;;;4.30;99.90;;;;;;5087085;28;20239;-79
2021/03/05 00:33:50;;;;;;;4.37;1.97;;;4.30;99.90;;;;;;5105353;28;20216;-79
2021/03/05 00:36:15;;;;;;;2.83;2.20;;;4.20;99.90;;;;;;5086724;28;20222;-78
2021/03/05 00:38:41;;;;;;;2.67;1.90;;;4.20;99.90;;;;;;5105469;28;20260;-79
2021/03/05 00:41:07;;;;;;;3.67;2.30;;;4.20;99.90;;;;;;5086329;28;20178;-79
2021/03/05 00:43:32;;;;;;;2.50;2.10;;;4.00;99.90;;;;;;5086134;28;20196;-79
2021/03/05 00:45:59;;;;;;;2.80;2.07;;;4.10;99.90;;;;;;5085697;28;20180;-79
2021/03/05 00:48:24;;;;;;;2.30;2.10;;;4.20;99.90;;;;;;5086125;28;20208;-79
2021/03/05 00:50:50;;;;;;;3.43;2.60;;;4.20;99.90;;;;;;5085717;28;20250;-79
2021/03/05 00:53:17;;;;;;;4.27;2.40;;;4.20;99.90;;;;;;5104298;28;20243;-79
2021/03/05 00:55:42;;;;;;;3.47;3.17;;;4.20;99.90;;;;;;5085279;28;20181;-78
2021/03/05 00:58:08;;;;;;;6.13;2.57;;;4.20;99.90;;;;;;5104574;28;20169;-79
2021/03/05 01:00:34;;;;;;;3.57;2.97;;;4.20;99.90;;;;;;5085831;28;20638;-78
2021/03/05 01:03:00;;;;;;;3.00;2.70;;;4.20;99.90;;;;;;5085451;28;20196;-79
2021/03/05 01:05:26;;;;;;;4.77;3.27;;;4.20;99.90;;;;;;5104273;28;20624;-79
2021/03/05 01:07:51;;;;;;;4.13;3.33;;;4.30;99.90;;;;;;5085737;28;20196;-78
2021/03/05 01:10:18;;;;;;;5.20;3.20;;;4.30;99.90;;;;;;5104118;28;20246;-79
2021/03/05 01:12:43;;;;;;;5.40;3.57;;;4.20;99.90;;;;;;5102937;28;20203;-79
2021/03/05 01:15:10;;;;;;;4.63;3.60;;;4.30;99.90;;;;;;5085480;28;20184;-79
2021/03/05 01:17:36;;;;;;;5.17;3.13;;;4.30;99.90;;;;;;5104160;28;20169;-79
2021/03/05 01:20:10;;;;;;;5.73;3.43;;;4.20;99.90;;;;;;5104165;28;20173;-79
2021/03/05 01:22:36;;;;;;;4.73;3.43;;;4.20;99.90;;;;;;5085126;28;20180;-79
2021/03/05 01:25:02;;;;;;;5.83;3.60;;;4.20;99.90;;;;;;5103643;28;20180;-79
2021/03/05 01:27:28;;;;;;;4.43;3.43;;;4.20;99.90;;;;;;5104207;28;20174;-79
2021/03/05 01:29:53;;;;;;;3.83;2.97;;;4.20;99.90;;;;;;5103817;28;20196;-79
2021/03/05 01:32:19;;;;;;;3.90;3.40;;;4.10;99.90;;;;;;5104064;28;20174;-79
2021/03/05 01:34:44;;;;;;;4.30;3.00;;;4.20;99.90;;;;;;5103694;28;20211;-79
2021/03/05 01:37:10;;;;;;;4.80;3.33;;;4.20;99.90;;;;;;5104045;28;20531;-79
2021/03/05 01:39:36;;;;;;;4.67;3.27;;;4.20;99.90;;;;;;5104163;28;20184;-79
2021/03/05 01:42:01;;;;;;;3.93;3.30;;;4.20;99.90;;;;;;5085579;28;20180;-79
2021/03/05 01:44:28;;;;;;;4.53;3.47;;;4.10;99.90;;;;;;5103376;28;20206;-79
2021/03/05 01:46:54;;;;;;;4.80;3.07;;;4.10;99.90;;;;;;5103616;28;20206;-79
2021/03/05 01:49:19;;;;;;;5.80;3.50;;;4.10;99.90;;;;;;5103651;28;20725;-79
2021/03/05 01:51:45;;;;;;;6.17;3.90;;;4.20;99.90;;;;;;5084969;28;20177;-79
2021/03/05 01:54:11;;;;;;;4.97;3.57;;;4.10;99.90;;;;;;5103647;28;20196;-78
2021/03/05 01:56:45;;;;;;;4.33;3.50;;;4.10;99.90;;;;;;5102695;28;20173;-79
2021/03/05 01:59:13;;;;;;;6.13;4.03;;;4.20;99.90;;;;;;5102631;28;20183;-79
2021/03/05 02:01:40;;;;;;;6.83;3.87;;;4.10;99.90;;;;;;5101843;28;20246;-79
2021/03/05 02:04:10;;;;;;;4.97;3.57;;;4.10;99.90;;;;;;5102222;28;20231;-79
2021/03/05 02:06:36;;;;;;;5.50;4.10;;;4.20;99.90;;;;;;5101990;28;20440;-79
2021/03/05 02:09:03;;;;;;;4.90;3.70;;;4.10;99.90;;;;;;5083961;28;20235;-79
2021/03/05 02:11:29;;;;;;;6.60;3.80;;;4.20;99.90;;;;;;5102140;28;20179;-78
2021/03/05 02:13:56;;;;;;;6.20;3.33;;;4.20;99.90;;;;;;5102814;28;20438;-79
2021/03/05 02:16:46;;;;;;;4.80;3.47;;;4.20;99.90;;;;;;5102095;28;20530;-79
2021/03/05 02:19:21;;;;;;;4.17;3.77;;;4.20;99.90;;;;;;5083745;28;20927;-79
2021/03/05 02:22:06;;;;;;;4.17;2.80;;;4.20;99.90;;;;;;5083681;28;20437;-79
2021/03/05 02:24:51;;;;;;;5.90;3.63;;;4.10;99.90;;;;;;5102161;28;20538;-78
2021/03/05 02:28:00;;;;;;;4.57;3.20;;;4.10;99.90;;;;;;5101823;28;20420;-79
2021/03/05 02:30:42;;;;;;;5.37;3.53;;;4.10;99.90;;;;;;5085222;28;20484;-79
2021/03/05 02:33:17;;;;;;;7.33;3.87;;;4.10;99.90;;;;;;5083573;28;20446;-79
2021/03/05 02:35:44;;;;;;;5.20;3.13;;;4.20;99.90;;;;;;5101696;28;20202;-79
2021/03/05 02:38:12;;;;;;;4.37;3.57;;;4.10;99.90;;;;;;5101778;28;20251;-79
2021/03/05 02:40:41;;;;;;;3.33;2.73;;;4.10;99.90;;;;;;5102812;28;20169;-79
2021/03/05 02:43:15;;;;;;;4.93;2.83;;;4.10;99.90;;;;;;5083636;28;20193;-78
2021/03/05 02:45:42;;;;;;;4.50;3.20;;;4.00;99.90;;;;;;5102463;28;20410;-79
2021/03/05 02:48:11;;;;;;;3.23;2.80;;;4.00;99.90;;;;;;5083955;28;20422;-79
2021/03/05 02:50:44;;;;;;;3.97;3.03;;;4.00;99.90;;;;;;5102051;28;20207;-79
2021/03/05 02:53:17;;;;;;;4.27;3.07;;;4.10;99.90;;;;;;5101643;28;20196;-78
2021/03/05 02:55:46;;;;;;;4.00;3.20;;;4.00;99.90;;;;;;5102440;28;20693;-78
2021/03/05 02:58:14;;;;;;;3.67;3.10;;;4.00;99.90;;;;;;5082584;28;20422;-78
2021/03/05 03:00:42;;;;;;;3.93;3.13;;;4.00;99.90;;;;;;5101102;28;20598;-79
2021/03/05 03:03:10;;;;;;;3.37;2.93;;;3.90;99.90;;;;;;5082890;28;20470;-79
2021/03/05 03:05:37;;;;;;;3.27;2.63;;;3.90;99.90;;;;;;5101947;28;20630;-79
2021/03/05 03:08:05;;;;;;;3.20;2.80;;;3.90;99.90;;;;;;5082515;28;20219;-79
2021/03/05 03:10:32;;;;;;;4.87;2.67;;;3.90;99.90;;;;;;5082618;28;20204;-79
2021/03/05 03:13:00;;;;;;;4.83;3.30;;;3.90;99.90;;;;;;5101285;28;20275;-79
2021/03/05 03:15:30;;;;;;;3.33;2.67;;;3.80;99.90;;;;;;5100474;28;20183;-79
2021/03/05 03:17:57;;;;;;;4.03;3.00;;;3.80;99.90;;;;;;5082811;28;20788;-78
2021/03/05 03:20:24;;;;;;;4.17;3.20;;;3.90;99.90;;;;;;5100910;28;20172;-79
2021/03/05 03:22:50;;;;;;;3.90;3.03;;;3.80;99.90;;;;;;5100871;28;20180;-79
2021/03/05 03:25:16;;;;;;;4.53;2.97;;;3.90;99.90;;;;;;5100353;28;20177;-78
2021/03/05 03:27:43;;;;;;;3.60;3.30;;;3.90;99.90;;;;;;5100017;28;20187;-78
2021/03/05 03:30:18;;;;;;;3.30;2.70;;;3.90;99.90;;;;;;5082318;28;20465;-79
2021/03/05 03:32:45;;;;;;;3.50;3.20;;;3.90;99.90;;;;;;5100949;28;20175;-79
2021/03/05 03:35:12;;;;;;;3.67;3.20;;;3.90;99.90;;;;;;5101044;28;20529;-79
2021/03/05 03:37:39;;;;;;;4.50;3.50;;;3.90;99.90;;;;;;5082069;28;20415;-79
2021/03/05 03:40:19;;;;;;;5.30;3.47;;;3.90;99.90;;;;;;5081519;28;20198;-79
2021/03/05 03:42:46;;;;;;;6.13;3.50;;;3.90;99.90;;;;;;5083804;28;20625;-78
2021/03/05 03:45:14;;;;;;;4.37;3.67;;;3.80;99.90;;;;;;5082054;28;20411;-78
2021/03/05 03:47:40;;;;;;;3.80;3.40;;;3.90;99.90;;;;;;5100670;28;20186;-79
2021/03/05 03:50:38;;;;;;;3.80;3.27;;;3.80;99.90;;;;;;5100722;28;20208;-79
2021/03/05 03:53:06;;;;;;;5.27;3.73;;;3.90;99.90;;;;;;5077728;28;20203;-79
2021/03/05 03:55:32;;;;;;;4.40;3.57;;;3.90;99.90;;;;;;5100804;28;20414;-79
2021/03/05 03:57:59;;;;;;;5.07;3.57;;;3.90;99.90;;;;;;5101302;28;20173;-79
2021/03/05 04:00:25;;;;;;;5.10;3.87;;;4.00;99.90;;;;;;5101448;28;20240;-79
2021/03/05 04:02:54;;;;;;;4.57;3.47;;;3.90;99.90;;;;;;5101380;28;20238;-78
2021/03/05 04:05:36;;;;;;;4.53;3.87;;;3.90;99.90;;;;;;5100833;28;20537;-79
2021/03/05 04:08:02;;;;;;;5.27;3.67;;;3.90;99.90;;;;;;5100771;28;20193;-79
2021/03/05 04:10:29;;;;;;;4.80;4.07;;;3.90;99.90;;;;;;5083148;28;20458;-79
2021/03/05 04:12:56;;;;;;;5.30;4.00;;;3.90;99.90;;;;;;5081988;28;20798;-79
2021/03/05 04:15:23;;;;;;;3.77;3.27;;;3.90;99.90;;;;;;5100478;28;20417;-79
2021/03/05 04:17:49;;;;;;;5.13;3.83;;;3.80;99.90;;;;;;5100643;28;20826;-79
2021/03/05 04:20:17;;;;;;;5.10;3.97;;;3.90;99.90;;;;;;5102298;28;20536;-79
2021/03/05 04:22:45;;;;;;;4.47;3.43;;;3.80;99.90;;;;;;5101714;28;20411;-79
2021/03/05 04:25:13;;;;;;;5.70;3.60;;;3.80;99.90;;;;;;5082104;28;20431;-78
2021/03/05 04:27:38;;;;;;;3.70;3.23;;;3.80;99.90;;;;;;5101078;28;20187;-79
2021/03/05 04:30:05;;;;;;;5.50;3.87;;;3.80;99.90;;;;;;5082681;28;20456;-79
2021/03/05 04:32:31;;;;;;;4.07;3.33;;;3.80;99.90;;;;;;5082167;28;20178;-79
2021/03/05 04:34:56;;;;;;;4.90;4.37;;;3.80;99.90;;;;;;5082429;28;20438;-79
2021/03/05 04:37:22;;;;;;;4.10;3.70;;;3.90;99.90;;;;;;5086084;28;20172;-79
2021/03/05 04:39:48;;;;;;;6.10;3.60;;;3.70;99.90;;;;;;5086715;28;20270;-79
2021/03/05 04:42:13;;;;;;;4.83;3.43;;;3.70;99.90;;;;;;5104695;28;20177;-79
2021/03/05 04:44:39;;;;;;;4.33;3.83;;;3.70;99.90;;;;;;5086559;28;20220;-79
2021/03/05 04:47:04;;;;;;;3.93;3.47;;;3.80;99.90;;;;;;5105474;28;20176;-79
2021/03/05 04:49:30;;;;;;;3.10;2.80;;;3.80;99.90;;;;;;5090020;28;20567;-79
2021/03/05 04:51:56;;;;;;;3.53;3.00;;;3.80;99.90;;;;;;5108265;28;20522;-79
2021/03/05 04:54:22;;;;;;;2.53;2.33;;;3.70;99.90;;;;;;5108460;28;20201;-79
2021/03/05 04:56:48;;;;;;;3.33;2.97;;;3.80;99.90;;;;;;5089220;28;20186;-79
2021/03/05 04:59:14;;;;;;;3.67;3.03;;;;;;;;;;5090107;28;20270;-79
2021/03/05 05:01:39;;;;;;;5.00;3.27;;;3.70;99.90;;;;;;5107908;28;20626;-79
2021/03/05 05:04:05;;;;;;;4.03;2.90;;;3.90;99.90;;;;;;5108126;28;20278;-79
2021/03/05 05:06:31;;;;;;;4.33;3.33;;;3.70;99.90;;;;;;5107522;28;20185;-79
2021/03/05 05:08:56;;;;;;;5.63;3.63;;;3.70;99.90;;;;;;5107156;28;20240;-79
2021/03/05 05:11:22;;;;;;;4.47;3.87;;;3.70;99.90;;;;;;5106999;28;20168;-79
2021/03/05 05:13:48;;;;;;;4.67;3.80;;;3.80;99.90;;;;;;5107883;28;20214;-79
2021/03/05 05:16:13;;;;;;;6.00;4.70;;;3.70;99.90;;;;;;5088906;28;20177;-79
2021/03/05 05:18:39;;;;;;;6.67;4.37;;;3.80;99.90;;;;;;5089218;28;20184;-79
2021/03/05 05:21:04;;;;;;;4.43;3.77;;;3.90;99.90;;;;;;5107589;28;20173;-79
2021/03/05 05:23:30;;;;;;;4.70;3.93;;;3.80;99.90;;;;;;5106729;28;20225;-79
2021/03/05 05:25:56;;;;;;;5.97;4.30;;;3.80;99.90;;;;;;5088540;28;20183;-79
2021/03/05 05:28:21;;;;;;;6.23;4.50;;;3.80;99.90;;;;;;5088508;28;20188;-79
2021/03/05 05:30:47;;;;;;;8.07;4.87;;;3.90;99.90;;;;;;5107165;28;20256;-79
2021/03/05 05:33:13;;;;;;;5.53;4.53;;;3.90;99.90;;;;;;5106775;28;20310;-79
2021/03/05 05:35:38;;;;;;;6.13;5.03;;;3.90;99.90;;;;;;5106505;28;20172;-79
2021/03/05 05:38:04;;;;;;;7.33;5.47;;;4.00;99.90;;;;;;5106455;28;20169;-79
2021/03/05 05:40:30;;;;;;;6.27;5.57;;;4.00;99.90;;;;;;5087948;28;20212;-79
2021/03/05 05:42:56;;;;;;;7.13;5.90;;;3.90;99.90;;;;;;5088008;28;20192;-79
2021/03/05 05:45:22;;;;;;;7.30;5.60;;;3.90;99.90;;;;;;5106815;28;20630;-79
2021/03/05 05:47:47;;;;;;;8.77;5.90;;;4.00;99.90;;;;;;5105145;28;20172;-78
2021/03/05 05:50:13;;;;;;;9.43;6.43;;;4.10;99.90;;;;;;5087124;28;20222;-79
2021/03/05 05:52:41;;;;;;;10.97;6.63;;;4.10;99.90;;;;;;5105236;28;20251;-78
2021/03/05 05:55:07;;;;;;;8.10;6.17;;;4.00;99.90;;;;;;5105905;28;20175;-79
2021/03/05 05:57:37;;;;;;;8.47;6.27;;;4.00;99.90;;;;;;5087755;28;20195;-80
2021/03/05 06:00:06;;;;;;;8.13;6.20;;;4.10;99.90;;;;;;5087468;28;20431;-78
2021/03/05 06:02:34;;;;;;;8.70;6.40;;;4.10;99.90;;;;;;5105538;28;20425;-78
2021/03/05 06:05:00;;;;;;;9.63;7.20;;;4.20;99.90;;;;;;5105557;28;20261;-78
2021/03/05 06:07:27;;;;;;;11.37;7.47;;;4.10;99.90;;;;;;5086981;28;20676;-78
2021/03/05 06:09:53;;;;;;;13.33;8.30;;;4.20;99.90;;;;;;5087185;28;20200;-78
2021/03/05 06:12:19;;;;;;;11.80;9.13;;;4.30;99.90;;;;;;5104230;28;20170;-79
2021/03/05 06:14:46;;;;;;;15.77;10.97;;;4.20;99.90;;;;;;5027964;28;20545;-78
2021/03/05 06:17:12;;;;;;;10.67;7.10;;;4.30;99.90;;;;;;5092170;28;20173;-78
2021/03/05 06:19:39;;;;;;;10.77;7.73;;;4.00;99.90;;;;;;5103524;28;20169;-78
2021/03/05 06:22:19;;;;;;;4.57;3.57;;;4.10;99.90;;;;;;5103585;28;20168;-78
2021/03/05 06:24:45;;;;;;;7.20;5.63;;;4.10;99.90;;;;;;5103075;28;20184;-78
2021/03/05 06:27:11;;;;;;;8.30;6.13;;;4.00;99.90;;;;;;5103294;28;20801;-79
2021/03/05 06:29:41;;;;;;;10.03;7.40;;;3.80;99.90;;;;;;5103709;28;20199;-79
2021/03/05 06:32:11;;;;;;;12.07;7.53;;;3.70;99.90;;;;;;5085759;28;20169;-80
2021/03/05 06:34:54;;;;;;;13.53;9.03;;;3.60;99.90;;;;;;5104123;28;20251;-78
2021/03/05 06:37:23;;;;;;;13.53;9.17;;;3.50;99.90;;;;;;5105150;28;20177;-78
2021/03/05 06:39:59;;;;;;;15.63;9.87;;;3.50;99.90;;;;;;5085993;28;20418;-78
2021/03/05 06:42:25;;;;;;;15.80;10.03;;;3.40;99.90;;;;;;5105521;28;20247;-79
2021/03/05 06:44:51;;;;;;;18.23;10.77;;;3.50;99.90;;;;;;5105040;28;20785;-78
2021/03/05 06:47:19;;;;;;;21.23;11.23;;;3.40;99.90;;;;;;5104845;28;20208;-78
2021/03/05 06:49:46;;;;;;;18.07;10.73;;;3.40;99.90;;;;;;5085370;28;20210;-78
2021/03/05 06:52:17;;;;;;;16.73;11.10;;;3.30;99.90;;;;;;5085393;28;20403;-78
2021/03/05 06:54:44;;;;;;;17.03;10.47;;;3.30;99.90;;;;;;5104025;28;20434;-78
2021/03/05 06:57:11;;;;;;;13.83;8.87;;;3.20;99.90;;;;;;5085403;28;20446;-78
2021/03/05 06:59:40;;;;;;;16.93;11.70;;;3.20;99.90;;;;;;5104336;28;20398;-78
2021/03/05 07:02:14;;;;;;;18.67;10.70;;;3.30;99.90;;;;;;5086496;28;20471;-78
2021/03/05 07:04:49;;;;;;;15.20;9.90;;;3.20;99.90;;;;;;5104688;28;20432;-79
2021/03/05 07:07:16;;;;;;;13.83;9.27;;;3.10;99.90;;;;;;5104824;28;20433;-79
2021/03/05 07:09:42;;;;;;;16.50;10.57;;;3.30;99.90;;;;;;5102913;28;20686;-80
2021/03/05 07:12:09;;;;;;;16.53;11.37;;;;;;;;;;5086037;28;20417;-78
2021/03/05 07:14:36;;;;;;;15.70;10.70;;;3.30;99.90;;;;;;5102687;28;20572;-78
2021/03/05 07:17:03;;;;;;;16.53;10.70;;;3.30;99.90;;;;;;5103090;28;20250;-78
2021/03/05 07:19:30;;;;;;;17.87;10.10;;;3.20;99.90;;;;;;5085071;28;20176;-78
2021/03/05 07:21:57;;;;;;;17.40;10.70;;;3.20;99.90;;;;;;5086174;28;20540;-78
2021/03/05 07:24:25;;;;;;;14.33;9.90;;;3.10;99.90;;;;;;5103206;28;20438;-78
2021/03/05 07:27:01;;;;;;;13.50;8.63;;;3.10;99.90;;;;;;5103335;28;20176;-78
2021/03/05 07:29:29;;;;;;;13.37;8.87;;;3.10;99.90;;;;;;5103063;28;20472;-78
2021/03/05 07:32:06;;;;;;;12.27;8.43;;;3.00;99.90;;;;;;5085450;28;20406;-78
2021/03/05 07:34:42;;;;;;;13.50;8.53;;;2.90;99.90;;;;;;5101733;28;20426;-78
2021/03/05 07:37:11;;;;;;;12.10;8.80;;;2.90;99.90;;;;;;5102606;28;20751;-78
2021/03/05 07:39:41;;;;;;;13.70;9.77;;;2.90;99.90;;;;;;5085121;28;20418;-80
2021/03/05 07:42:08;;;;;;;12.20;8.23;;;2.90;99.90;;;;;;5103702;28;20402;-78
2021/03/05 07:44:36;;;;;;;12.97;8.83;;;2.90;99.90;;;;;;5085351;28;20480;-79
2021/03/05 07:47:06;;;;;;;12.30;8.20;;;2.90;99.90;;;;;;5103757;28;20406;-79
2021/03/05 07:49:34;;;;;;;10.90;7.97;;;2.80;99.90;;;;;;5086503;28;20476;-78
2021/03/05 07:52:01;;;;;;;11.43;7.60;;;2.80;99.90;;;;;;5085600;28;20414;-79
2021/03/05 07:54:39;;;;;;;11.07;7.50;;;2.70;99.90;;;;;;5103766;28;20418;-82
2021/03/05 07:57:06;;;;;;;12.00;8.53;;;2.70;99.90;;;;;;5104450;28;20402;-79
2021/03/05 07:59:37;;;;;;;12.27;8.37;;;2.70;99.90;;;;;;5105141;28;20403;-79
2021/03/05 08:02:04;;;;;;;10.60;8.50;;;2.60;99.90;;;;;;5104949;28;20505;-79
2021/03/05 08:04:48;;;;;;;9.53;6.87;;;2.70;99.90;;;;;;5085823;28;20633;-80
2021/03/05 08:07:15;;;;;;;12.20;8.50;;;2.60;99.90;;;;;;5105271;28;20429;-80
2021/03/05 08:09:41;;;;;;;11.03;7.33;;;2.60;99.90;;;;;;5087521;28;20196;-81
2021/03/05 08:15:12;;;;;;;14.43;9.17;;;2.40;99.90;;;;;;5108749;28;20208;-79
2021/03/05 08:17:39;;;;;;;12.13;8.17;;;2.40;99.90;;;;;;5091750;28;20406;-80
2021/03/05 08:20:09;;;;;;;11.43;8.17;;;2.30;99.90;;;;;;5109233;28;20586;-81
2021/03/05 08:23:03;;;;;;;11.63;7.87;;;2.50;99.90;;;;;;5091016;28;20424;-79
2021/03/05 08:25:38;;;;;;;11.37;8.27;;;2.50;99.90;;;;;;5102318;28;20283;-79
2021/03/05 08:28:05;;;;;;;12.43;8.37;;;2.40;99.90;;;;;;5090023;28;20547;-79
2021/03/05 08:30:34;;;;;;;9.10;6.87;;;2.40;99.90;;;;;;5108728;28;20462;-79
2021/03/05 08:33:04;;;;;;;26.20;18.63;;;2.40;99.90;;;;;;5107811;28;20437;-79
2021/03/05 08:35:29;;;;;;;12.80;9.10;;;2.40;99.90;;;;;;5089151;28;20419;-79
2021/03/05 08:37:58;;;;;;;20.43;15.77;;;2.50;99.90;;;;;;5089529;28;20946;-79
2021/03/05 08:40:34;;;;;;;47.47;27.17;;;2.40;99.90;;;;;;5089023;28;20210;-79
2021/03/05 08:43:09;;;;;;;19.10;12.90;;;2.40;99.90;;;;;;5108613;28;20429;-79
2021/03/05 08:45:48;;;;;;;17.80;12.70;;;2.50;99.90;;;;;;5091266;28;20422;-79
2021/03/05 08:48:34;;;;;;;22.30;15.70;;;2.40;99.90;;;;;;5088869;28;20426;-79
2021/03/05 08:51:09;;;;;;;12.37;8.43;;;2.40;99.90;;;;;;5089518;28;20486;-79
2021/03/05 08:53:43;;;;;;;11.90;8.07;;;2.50;99.90;;;;;;5107544;28;20270;-79
2021/03/05 08:56:10;;;;;;;9.00;7.47;;;2.50;99.90;;;;;;5089144;28;20177;-79
2021/03/05 08:58:36;;;;;;;6.80;5.50;;;2.50;99.90;;;;;;5106937;28;20407;-79
2021/03/05 09:01:03;;;;;;;7.73;6.10;;;2.60;99.90;;;;;;5106527;28;20773;-79
2021/03/05 09:03:28;;;;;;;8.17;7.13;;;2.50;99.90;;;;;;5106662;28;20619;-79
2021/03/05 09:05:54;;;;;;;8.00;5.90;;;2.60;99.90;;;;;;5106569;28;20203;-79
2021/03/05 09:08:22;;;;;;;6.10;5.20;;;2.60;99.90;;;;;;5106166;28;20668;-79
2021/03/05 09:11:00;;;;;;;6.93;5.67;;;2.50;99.90;;;;;;5106578;28;20195;-79
2021/03/05 09:13:31;;;;;;;7.83;3.80;;;2.20;99.90;;;;;;5107238;28;20692;-79
2021/03/05 09:15:59;;;;;;;5.03;3.90;;;2.20;99.90;;;;;;5107012;28;20227;-79
2021/03/05 09:18:30;;;;;;;26.03;20.07;;;2.20;99.90;;;;;;5088392;28;20176;-79
2021/03/05 09:20:58;;;;;;;16.27;14.57;;;2.20;99.90;;;;;;5106416;28;20393;-79
2021/03/05 09:23:33;;;;;;;9.53;7.13;;;2.20;99.90;;;;;;5087550;28;20446;-79
2021/03/05 09:26:03;;;;;;;37.50;30.80;;;2.10;99.90;;;;;;5088186;28;20448;-79
2021/03/05 09:28:37;;;;;;;19.53;17.70;;;2.00;99.90;;;;;;5106629;28;20434;-79
2021/03/05 09:31:03;;;;;;;17.30;15.10;;;1.90;99.90;;;;;;5087738;28;20479;-79
2021/03/05 09:33:34;;;;;;;10.83;9.77;;;1.90;99.90;;;;;;5107024;28;20916;-79
2021/03/05 09:36:06;;;;;;;6.83;5.60;;;1.90;99.90;;;;;;5087863;28;20415;-79
2021/03/05 09:38:33;;;;;;;6.60;5.53;;;1.80;99.90;;;;;;5087965;28;20483;-79
2021/03/05 09:41:12;;;;;;;22.13;19.17;;;1.80;99.90;;;;;;5106738;28;20414;-79
2021/03/05 09:43:37;;;;;;;6.97;6.27;;;1.70;99.90;;;;;;5106024;28;20202;-79
2021/03/05 09:46:27;;;;;;;12.57;9.57;;;1.70;99.90;;;;;;5105863;28;20450;-78
2021/03/05 09:48:54;;;;;;;8.40;6.60;;;1.50;99.90;;;;;;5087057;28;20180;-79
2021/03/05 09:51:20;;;;;;;10.53;7.97;;;1.60;99.90;;;;;;5105878;28;20204;-79
2021/03/05 09:53:57;;;;;;;10.57;8.70;;;1.50;99.90;;;;;;5105195;28;20932;-79
2021/03/05 09:56:27;;;;;;;9.40;8.37;;;1.40;99.90;;;;;;5106127;28;20413;-79
2021/03/05 09:58:57;;;;;;;19.93;17.77;;;1.30;99.90;;;;;;5088363;28;20410;-79
2021/03/05 10:01:24;;;;;;;10.67;8.33;;;1.40;99.90;;;;;;5108139;28;20420;-79
2021/03/05 10:03:57;;;;;;;19.77;17.57;;;1.50;99.90;;;;;;5107241;28;20426;-79
2021/03/05 10:06:24;;;;;;;9.53;7.80;;;1.60;99.90;;;;;;5088821;28;20196;-80
2021/03/05 10:09:09;;;;;;;9.43;8.13;;;1.60;99.90;;;;;;5088197;28;20422;-79
2021/03/05 10:11:38;;;;;;;10.40;9.20;;;1.70;99.90;;;;;;5106385;28;20387;-79
2021/03/05 10:14:24;;;;;;;24.53;20.53;;;1.60;99.90;;;;;;5087049;28;20454;-80
2021/03/05 10:16:50;;;;;;;12.00;9.13;;;1.60;99.90;;;;;;5085135;28;20510;-78
2021/03/05 10:19:21;;;;;;;23.03;20.60;;;1.80;99.90;;;;;;5103724;28;20958;-79
2021/03/05 10:21:50;;;;;;;15.57;10.47;;;1.70;99.90;;;;;;5085838;28;20411;-79
2021/03/05 10:24:18;;;;;;;26.33;22.10;;;1.80;99.90;;;;;;5103675;28;20445;-79
2021/03/05 10:29:56;;;;;;;15.47;11.93;;;1.70;99.90;;;;;;5104974;28;20473;-79
2021/03/05 10:32:23;;;;;;;28.27;21.50;;;1.60;99.90;;;;;;5086511;28;20915;-79
2021/03/05 10:34:51;;;;;;;15.23;10.27;;;1.70;99.90;;;;;;5103983;28;20426;-79
2021/03/05 10:37:17;;;;;;;21.77;14.97;;;1.70;99.90;;;;;;5085497;28;20843;-79
2021/03/05 10:39:44;;;;;;;15.10;9.87;;;1.60;99.90;;;;;;5104237;28;20935;-79
2021/03/05 10:42:15;;;;;;;5.80;4.40;;;1.60;99.90;;;;;;5085275;28;20406;-79
2021/03/05 10:44:42;;;;;;;6.13;4.67;;;1.50;99.90;;;;;;5085374;28;20806;-79
2021/03/05 10:47:10;;;;;;;9.90;7.63;;;1.50;99.90;;;;;;5104509;28;20415;-79
2021/03/05 10:49:38;;;;;;;6.10;4.60;;;1.60;99.90;;;;;;5101884;28;20962;-78
2021/03/05 10:52:07;;;;;;;5.57;4.30;;;1.50;99.90;;;;;;5081622;28;20544;-78
2021/03/05 10:54:33;;;;;;;5.23;4.30;;;1.60;99.90;;;;;;5081255;28;20434;-78
2021/03/05 10:56:59;;;;;;;4.83;3.63;;;1.40;99.90;;;;;;5082655;28;20414;-78
2021/03/05 10:59:26;;;;;;;4.97;4.03;;;1.50;99.90;;;;;;5102236;28;20411;-78
2021/03/05 11:01:53;;;;;;;8.27;5.30;;;1.50;99.90;;;;;;5085000;28;20406;-79
2021/03/05 11:04:24;;;;;;;6.80;4.17;;;1.60;99.90;;;;;;5086909;28;20440;-79
2021/03/05 11:06:50;;;;;;;5.73;4.17;;;1.80;99.90;;;;;;5086474;28;20222;-79
2021/03/05 11:09:20;;;;;;;5.63;4.03;;;1.90;99.90;;;;;;5104249;28;20797;-79
2021/03/05 11:11:46;;;;;;;5.17;3.63;;;1.90;99.90;;;;;;5104716;28;20409;-79
2021/03/05 11:14:14;;;;;;;5.97;4.37;;;1.90;99.90;;;;;;5103872;28;20461;-79
2021/03/05 11:16:40;;;;;;;5.37;3.90;;;1.90;99.90;;;;;;5104197;28;20406;-79
2021/03/05 11:19:07;;;;;;;4.97;3.87;;;2.00;99.90;;;;;;5104786;28;20428;-79
2021/03/05 11:21:33;;;;;;;4.43;3.60;;;2.00;99.90;;;;;;5104580;28;20772;-79
2021/03/05 11:23:59;;;;;;;5.67;3.67;;;2.10;99.90;;;;;;5086256;28;20442;-79
2021/03/05 11:26:25;;;;;;;5.30;3.90;;;2.20;99.90;;;;;;5104326;28;20422;-79
2021/03/05 11:28:53;;;;;;;3.70;2.87;;;2.30;99.90;;;;;;5104788;28;20183;-79
2021/03/05 11:31:19;;;;;;;3.60;2.80;;;2.30;99.90;;;;;;5104762;28;20557;-79
2021/03/05 11:33:45;;;;;;;3.40;2.83;;;2.30;99.90;;;;;;5104591;28;20514;-79
2021/03/05 11:36:15;;;;;;;4.33;3.03;;;2.20;99.90;;;;;;5084955;28;20469;-79
2021/03/05 11:38:44;;;;;;;3.77;2.77;;;2.00;99.90;;;;;;5102797;28;20502;-79
2021/03/05 11:41:11;;;;;;;3.43;2.73;;;2.30;99.90;;;;;;5103074;28;20185;-79
2021/03/05 11:43:44;;;;;;;5.27;3.90;;;2.30;99.90;;;;;;5102930;28;20195;-79
2021/03/05 11:46:10;;;;;;;5.20;3.37;;;2.20;99.90;;;;;;5083345;28;20174;-79
2021/03/05 11:48:36;;;;;;;5.03;3.60;;;2.30;99.90;;;;;;5086522;28;20186;-79
2021/03/05 11:51:02;;;;;;;5.87;4.60;;;2.10;99.90;;;;;;5086499;28;20213;-79
2021/03/05 11:53:27;;;;;;;5.03;3.73;;;2.00;99.90;;;;;;5104151;28;20220;-80
2021/03/05 11:55:53;;;;;;;3.87;3.30;;;1.80;99.90;;;;;;5105121;28;20186;-79
2021/03/05 11:58:19;;;;;;;4.93;3.37;;;1.70;99.90;;;;;;5086793;28;20178;-79
2021/03/05 12:00:45;;;;;;;4.93;3.00;;;1.70;99.90;;;;;;5105474;28;20178;-79
2021/03/05 12:03:11;;;;;;;4.87;3.47;;;1.70;99.90;;;;;;5104987;28;20198;-79
2021/03/05 12:05:36;;;;;;;3.60;2.80;;;1.80;99.90;;;;;;5105900;28;20178;-79
2021/03/05 12:08:03;;;;;;;12.07;10.97;;;1.80;99.90;;;;;;5105132;28;20597;-80
2021/03/05 12:10:28;;;;;;;11.53;8.37;;;1.90;99.90;;;;;;5085377;28;20206;-79
2021/03/05 12:12:54;;;;;;;12.63;11.40;;;1.90;99.90;;;;;;5083859;28;20660;-79
2021/03/05 12:15:20;;;;;;;10.43;7.80;;;2.00;99.90;;;;;;5101941;28;20193;-79
2021/03/05 12:17:45;;;;;;;20.63;18.80;;;2.10;99.90;;;;;;5105076;28;20162;-79
2021/03/05 12:20:12;;;;;;;16.07;14.70;;;2.00;99.90;;;;;;5105515;28;20191;-79
2021/03/05 12:22:38;;;;;;;7.97;5.33;;;2.00;99.90;;;;;;5106044;28;20195;-80
2021/03/05 12:25:05;;;;;;;9.70;8.67;;;1.90;99.90;;;;;;5087135;28;20203;-80
2021/03/05 12:27:32;;;;;;;7.07;4.97;;;1.80;99.90;;;;;;5083461;28;20177;-80
2021/03/05 12:29:58;;;;;;;6.77;4.70;;;1.70;99.90;;;;;;5108377;28;20247;-80
2021/03/05 12:32:23;;;;;;;7.23;4.80;;;1.80;99.90;;;;;;5102506;28;20178;-80
2021/03/05 12:34:49;;;;;;;8.00;5.40;;;1.80;99.90;;;;;;5103373;28;20200;-80
2021/03/05 12:37:15;;;;;;;6.60;4.80;;;1.90;99.90;;;;;;5102900;28;20166;-80
2021/03/05 12:39:40;;;;;;;6.37;4.97;;;1.80;99.90;;;;;;5102227;28;20535;-79
2021/03/05 12:42:06;;;;;;;10.37;6.00;;;1.90;99.90;;;;;;5084550;28;20210;-80
2021/03/05 12:44:32;;;;;;;13.30;10.63;;;1.80;99.90;;;;;;5102137;28;20574;-79
2021/03/05 12:46:58;;;;;;;6.53;5.77;;;1.90;99.90;;;;;;5084078;28;20180;-79
2021/03/05 12:49:23;;;;;;;8.30;4.27;;;1.90;99.90;;;;;;5101368;28;20199;-79
2021/03/05 12:51:51;;;;;;;10.37;6.03;;;2.00;99.90;;;;;;5102230;28;20176;-79
2021/03/05 12:54:16;;;;;;;6.03;5.23;;;2.00;99.90;;;;;;5103329;28;20196;-79
2021/03/05 12:56:42;;;;;;;5.30;4.73;;;2.10;99.90;;;;;;5105566;28;20407;-79
2021/03/05 12:59:08;;;;;;;7.50;6.13;;;2.10;99.90;;;;;;5098502;28;20173;-80
2021/03/05 13:01:33;;;;;;;7.27;5.37;;;2.20;99.90;;;;;;5107157;28;20176;-80
2021/03/05 13:03:59;;;;;;;12.97;11.63;;;2.20;99.90;;;;;;5106279;28;20192;-80
2021/03/05 13:06:24;;;;;;;7.30;4.93;;;2.10;99.90;;;;;;5105941;28;20211;-80